createdAt,value
2019-01-19T00:01:21.758Z,101320.12
2019-01-19T00:04:14.054Z,101321.85
2019-01-19T00:07:09.717Z,101316.30
2019-01-19T00:10:15.643Z,101307.52
2019-01-19T00:13:09.727Z,101309.48
2019-01-19T00:15:52.997Z,101305.05
2019-01-19T00:18:36.493Z,101302.10
2019-01-19T00:21:19.419Z,101302.94
2019-01-19T00:24:02.896Z,101300.03
2019-01-19T00:26:49.192Z,101306.09
2019-01-19T00:29:35.294Z,101299.98
2019-01-19T00:32:12.272Z,101305.21
2019-01-19T00:35:04.429Z,101303.59
2019-01-19T00:37:41.516Z,101305.44
2019-01-19T00:40:46.193Z,101295.63
2019-01-19T00:43:16.707Z,101295.84
2019-01-19T00:45:59.860Z,101295.77
2019-01-19T00:48:37.086Z,101293.73
2019-01-19T00:51:19.459Z,101286.66
2019-01-19T00:54:22.188Z,101291.95
2019-01-19T00:57:08.536Z,101291.19
2019-01-19T00:59:38.556Z,101284.11
2019-01-19T01:02:32.599Z,101288.38
2019-01-19T01:05:12.742Z,101289.27
2019-01-19T01:08:02.164Z,101293.83
2019-01-19T01:10:39.643Z,101286.50
2019-01-19T01:13:32.181Z,101289.05
2019-01-19T01:16:34.729Z,101287.37
2019-01-19T01:19:15.499Z,101287.94
2019-01-19T01:22:05.023Z,101297.30
2019-01-19T01:25:20.693Z,101285.88
2019-01-19T01:28:19.399Z,101285.38
2019-01-19T01:31:01.830Z,101289.70
2019-01-19T01:34:18.465Z,101288.50
2019-01-19T01:37:10.744Z,101286.66
2019-01-19T01:39:45.322Z,101289.91
2019-01-19T01:42:46.589Z,101291.83
2019-01-19T01:45:49.190Z,101292.49
2019-01-19T01:48:32.175Z,101287.20
2019-01-19T01:51:12.464Z,101289.53
2019-01-19T01:54:20.247Z,101290.24
2019-01-19T01:56:50.159Z,101282.16
2019-01-19T01:59:33.411Z,101276.78
2019-01-19T02:02:10.661Z,101278.87
2019-01-19T02:05:05.631Z,101269.36
2019-01-19T02:07:57.906Z,101270.95
2019-01-19T02:10:47.193Z,101268.92
2019-01-19T02:13:42.593Z,101270.69
2019-01-19T02:16:36.319Z,101266.98
2019-01-19T02:19:34.700Z,101261.94
2019-01-19T02:22:12.118Z,101258.06
2019-01-19T02:25:03.587Z,101262.59
2019-01-19T02:27:37.926Z,101262.18
2019-01-19T02:30:48.513Z,101255.88
2019-01-19T02:33:42.145Z,101249.44
2019-01-19T02:36:16.455Z,101257.09
2019-01-19T02:38:50.746Z,101249.36
2019-01-19T02:41:25.067Z,101250.77
2019-01-19T02:44:02.306Z,101248.05
2019-01-19T02:46:57.708Z,101245.77
2019-01-19T02:50:05.909Z,101245.16
2019-01-19T02:52:40.175Z,101243.61
2019-01-19T02:55:43.784Z,101239.91
2019-01-19T02:58:38.907Z,101236.82
2019-01-19T03:01:25.249Z,101238.53
2019-01-19T03:04:28.122Z,101232.92
2019-01-19T03:07:31.192Z,101226.85
2019-01-19T03:10:30.621Z,101221.65
2019-01-19T03:13:38.122Z,101221.98
2019-01-19T03:16:45.773Z,101223.63
2019-01-19T03:19:47.224Z,101214.23
2019-01-19T03:23:03.744Z,101218.07
2019-01-19T03:26:01.256Z,101216.84
2019-01-19T03:28:59.764Z,101216.26
2019-01-19T03:31:55.137Z,101208.27
2019-01-19T03:34:46.976Z,101210.55
2019-01-19T03:37:33.127Z,101209.38
2019-01-19T03:40:40.070Z,101204.58
2019-01-19T03:43:32.415Z,101200.38
2019-01-19T03:46:27.700Z,101199.52
2019-01-19T03:49:27.660Z,101199.91
2019-01-19T03:52:26.268Z,101196.39
2019-01-19T03:55:24.809Z,101191.06
2019-01-19T03:58:21.804Z,101193.52
2019-01-19T04:01:11.396Z,101188.19
2019-01-19T04:04:26.669Z,101184.20
2019-01-19T04:07:29.695Z,101185.16
2019-01-19T04:10:10.020Z,101186.06
2019-01-19T04:13:01.742Z,101190.13
2019-01-19T04:16:05.175Z,101180.94
2019-01-19T04:18:45.091Z,101179.94
2019-01-19T04:21:43.554Z,101180.89
2019-01-19T04:24:20.935Z,101180.11
2019-01-19T04:30:38.128Z,101175.67
2019-01-19T04:33:07.627Z,101176.87
2019-01-19T04:35:37.229Z,101174.97
2019-01-19T04:38:06.750Z,101173.03
2019-01-19T04:40:36.438Z,101173.06
2019-01-19T04:43:06.029Z,101168.98
2019-01-19T04:45:35.595Z,101174.16
2019-01-19T04:48:05.518Z,101170.09
2019-01-19T04:50:35.038Z,101171.56
2019-01-19T04:53:04.681Z,101171.14
2019-01-19T04:55:34.163Z,101170.55
2019-01-19T04:58:03.753Z,101168.33
2019-01-19T05:00:33.242Z,101163.52
2019-01-19T05:03:04.854Z,101163.63
2019-01-19T05:05:34.358Z,101157.10
2019-01-19T05:08:04.153Z,101159.36
2019-01-19T05:10:33.762Z,101158.80
2019-01-19T05:13:03.306Z,101162.06
2019-01-19T05:15:32.816Z,101153.06
2019-01-19T05:18:02.466Z,101153.55
2019-01-19T05:20:32.076Z,101156.81
2019-01-19T05:23:01.611Z,101152.61
2019-01-19T05:25:31.165Z,101151.02
2019-01-19T05:28:00.654Z,101151.56
2019-01-19T05:30:30.185Z,101143.58
2019-01-19T05:32:59.688Z,101143.97
2019-01-19T05:35:29.268Z,101142.27
2019-01-19T05:37:58.784Z,101139.07
2019-01-19T05:40:28.288Z,101141.67
2019-01-19T05:42:57.775Z,101137.80
2019-01-19T05:45:27.332Z,101134.30
2019-01-19T05:47:56.925Z,101139.30
2019-01-19T05:50:26.487Z,101139.94
2019-01-19T05:52:55.990Z,101143.60
2019-01-19T05:55:25.477Z,101141.45
2019-01-19T05:57:55.064Z,101140.83
2019-01-19T06:00:27.344Z,101144.00
2019-01-19T06:02:56.831Z,101138.69
2019-01-19T06:05:26.419Z,101140.05
2019-01-19T06:07:56.116Z,101138.22
2019-01-19T06:10:25.676Z,101141.61
2019-01-19T06:12:55.176Z,101134.03
2019-01-19T06:15:24.809Z,101141.45
2019-01-19T06:17:54.324Z,101136.79
2019-01-19T06:20:24.023Z,101142.66
2019-01-19T06:22:53.624Z,101141.98
2019-01-19T06:25:23.195Z,101145.37
2019-01-19T06:27:52.689Z,101143.22
2019-01-19T06:30:23.878Z,101149.22
2019-01-19T06:32:53.508Z,101145.78
2019-01-19T06:35:23.023Z,101151.02
2019-01-19T06:37:52.543Z,101147.77
2019-01-19T06:40:22.262Z,101142.89
2019-01-19T06:42:51.753Z,101151.42
2019-01-19T06:45:24.172Z,101145.61
2019-01-19T06:47:53.862Z,101142.34
2019-01-19T06:50:24.078Z,101142.45
2019-01-19T06:52:53.593Z,101141.56
2019-01-19T06:55:27.578Z,101137.81
2019-01-19T06:57:57.154Z,101132.20
2019-01-19T07:00:26.734Z,101130.34
2019-01-19T07:02:56.221Z,101127.81
2019-01-19T07:05:25.849Z,101129.88
2019-01-19T07:07:56.848Z,101131.73
2019-01-19T07:10:27.628Z,101127.56
2019-01-19T07:12:57.190Z,101133.79
2019-01-19T07:15:26.883Z,101137.45
2019-01-19T07:17:56.456Z,101133.98
2019-01-19T07:20:31.040Z,101133.30
2019-01-19T07:23:00.623Z,101132.94
2019-01-19T07:25:30.139Z,101136.62
2019-01-19T07:27:59.658Z,101145.20
2019-01-19T07:30:30.814Z,101143.70
2019-01-19T07:33:00.334Z,101145.70
2019-01-19T07:35:29.944Z,101143.70
2019-01-19T07:37:59.511Z,101142.59
2019-01-19T07:40:29.005Z,101146.23
2019-01-19T07:43:00.482Z,101149.11
2019-01-19T07:45:30.082Z,101146.68
2019-01-19T07:47:59.623Z,101151.51
2019-01-19T07:50:29.227Z,101156.38
2019-01-19T07:52:58.709Z,101162.89
2019-01-19T07:55:28.379Z,101155.25
2019-01-19T07:57:57.896Z,101158.08
2019-01-19T08:00:33.400Z,101151.95
2019-01-19T08:03:03.036Z,101155.06
2019-01-19T08:05:32.667Z,101153.00
2019-01-19T08:08:02.198Z,101164.78
2019-01-19T08:10:31.693Z,101159.91
2019-01-19T08:13:01.321Z,101162.11
2019-01-19T08:15:31.315Z,101156.57
2019-01-19T08:18:00.953Z,101161.53
2019-01-19T08:20:30.491Z,101161.58
2019-01-19T08:23:00.053Z,101162.10
2019-01-19T08:25:29.634Z,101158.45
2019-01-19T08:27:59.170Z,101156.69
2019-01-19T08:30:30.743Z,101157.74
2019-01-19T08:33:00.286Z,101160.14
2019-01-19T08:35:30.470Z,101156.28
2019-01-19T08:38:00.051Z,101156.49
2019-01-19T08:40:35.604Z,101153.41
2019-01-19T08:43:06.877Z,101153.67
2019-01-19T08:45:36.513Z,101150.06
2019-01-19T08:48:06.323Z,101151.93
2019-01-19T08:50:35.812Z,101156.76
2019-01-19T08:53:05.459Z,101148.25
2019-01-19T08:55:34.963Z,101139.20
2019-01-19T08:58:04.872Z,101148.55
2019-01-19T09:00:34.373Z,101144.59
2019-01-19T09:03:03.957Z,101146.08
2019-01-19T09:05:33.516Z,101141.84
2019-01-19T09:08:03.207Z,101141.64
2019-01-19T09:10:32.821Z,101139.44
2019-01-19T09:13:02.300Z,101146.29
2019-01-19T09:15:31.876Z,101142.23
2019-01-19T09:18:01.414Z,101139.61
2019-01-19T09:20:30.999Z,101138.43
2019-01-19T09:23:07.979Z,101136.99
2019-01-19T09:25:37.451Z,101143.41
2019-01-19T09:28:07.053Z,101141.38
2019-01-19T09:30:36.631Z,101143.66
2019-01-19T09:33:06.931Z,101143.16
2019-01-19T09:35:36.448Z,101139.95
2019-01-19T09:38:06.092Z,101140.48
2019-01-19T09:40:35.659Z,101141.82
2019-01-19T09:43:05.490Z,101141.20
2019-01-19T09:45:34.956Z,101139.94
2019-01-19T09:48:04.784Z,101144.02
2019-01-19T09:50:34.538Z,101133.16
2019-01-19T09:53:04.214Z,101136.30
2019-01-19T09:55:33.770Z,101139.33
2019-01-19T09:58:03.318Z,101140.89
2019-01-19T10:00:37.566Z,101130.14
2019-01-19T10:03:04.454Z,101125.37
2019-01-19T10:05:35.962Z,101124.91
2019-01-19T10:08:05.680Z,101117.11
2019-01-19T10:10:35.377Z,101129.63
2019-01-19T10:13:05.278Z,101121.61
2019-01-19T10:15:34.825Z,101112.16
2019-01-19T10:18:04.472Z,101114.36
2019-01-19T10:20:34.037Z,101108.27
2019-01-19T10:23:03.692Z,101113.20
2019-01-19T10:25:33.301Z,101105.88
2019-01-19T10:28:02.857Z,101106.51
2019-01-19T10:30:32.869Z,101103.30
2019-01-19T10:33:02.365Z,101097.87
2019-01-19T10:35:31.850Z,101094.48
2019-01-19T10:38:01.349Z,101096.55
2019-01-19T10:40:31.007Z,101087.90
2019-01-19T10:43:00.630Z,101084.17
2019-01-19T10:45:30.534Z,101088.45
2019-01-19T10:48:00.121Z,101080.57
2019-01-19T10:50:29.779Z,101073.29
2019-01-19T10:52:59.592Z,101067.71
2019-01-19T10:55:29.210Z,101062.80
2019-01-19T10:57:58.725Z,101065.84
2019-01-19T11:00:32.064Z,101060.30
2019-01-19T11:03:01.867Z,101061.73
2019-01-19T11:05:31.747Z,101059.32
2019-01-19T11:08:03.868Z,101052.14
2019-01-19T11:10:35.684Z,101049.40
2019-01-19T11:13:05.630Z,101048.56
2019-01-19T11:15:35.135Z,101044.68
2019-01-19T11:18:06.250Z,101042.17
2019-01-19T11:20:35.838Z,101041.77
2019-01-19T11:23:05.640Z,101040.31
2019-01-19T11:25:35.192Z,101032.45
2019-01-19T11:28:04.998Z,101026.48
2019-01-19T11:30:35.126Z,101019.71
2019-01-19T11:33:04.782Z,101017.08
2019-01-19T11:35:34.439Z,101016.81
2019-01-19T11:38:04.053Z,101017.63
2019-01-19T11:40:38.687Z,101014.55
2019-01-19T11:43:09.200Z,101014.55
2019-01-19T11:45:38.780Z,101008.68
2019-01-19T11:48:08.446Z,101005.61
2019-01-19T11:50:38.767Z,101008.98
2019-01-19T11:53:08.265Z,100998.63
2019-01-19T11:55:37.912Z,100993.52
2019-01-19T11:58:07.543Z,100990.06
2019-01-19T12:00:40.311Z,100987.35
2019-01-19T12:03:09.990Z,100982.33
2019-01-19T12:05:39.930Z,100979.06
2019-01-19T12:08:10.401Z,100977.31
2019-01-19T12:10:39.959Z,100978.90
2019-01-19T12:13:09.607Z,100980.19
2019-01-19T12:15:39.175Z,100961.34
2019-01-19T12:18:08.952Z,100970.43
2019-01-19T12:20:42.105Z,100961.89
2019-01-19T12:23:11.823Z,100954.91
2019-01-19T12:25:41.758Z,100952.20
2019-01-19T12:28:11.297Z,100939.61
2019-01-19T12:30:40.935Z,100936.75
2019-01-19T12:33:10.600Z,100939.92
2019-01-19T12:35:40.130Z,100939.90
2019-01-19T12:38:09.785Z,100933.44
2019-01-19T12:40:39.421Z,100934.77
2019-01-19T12:43:15.907Z,100929.38
2019-01-19T12:45:51.513Z,100926.05
2019-01-19T12:48:21.241Z,100926.61
2019-01-19T12:50:50.976Z,100920.00
2019-01-19T12:53:20.468Z,100919.70
2019-01-19T12:55:50.032Z,100919.23
2019-01-19T12:58:19.868Z,100924.73
2019-01-19T13:00:49.546Z,100909.53
2019-01-19T13:03:19.170Z,100907.83
2019-01-19T13:05:53.387Z,100901.95
2019-01-19T13:08:34.212Z,100899.08
2019-01-19T13:11:29.510Z,100894.69
2019-01-19T13:14:03.255Z,100887.67
2019-01-19T13:17:15.363Z,100891.33
2019-01-19T13:19:55.766Z,100882.06
2019-01-19T13:22:42.374Z,100880.60
2019-01-19T13:25:28.219Z,100878.90
2019-01-19T13:28:26.659Z,100874.31
2019-01-19T13:31:23.300Z,100874.25
2019-01-19T13:34:21.170Z,100868.88
2019-01-19T13:36:57.929Z,100865.16
2019-01-19T13:39:49.670Z,100864.66
2019-01-19T13:42:23.866Z,100860.30
2019-01-19T13:45:21.975Z,100854.90
2019-01-19T13:48:11.224Z,100858.34
2019-01-19T13:51:05.210Z,100855.02
2019-01-19T13:54:09.770Z,100853.36
2019-01-19T13:57:03.452Z,100855.36
2019-01-19T13:59:43.425Z,100851.86
2019-01-19T14:02:29.491Z,100854.58
2019-01-19T14:05:30.992Z,100844.22
2019-01-19T14:08:22.769Z,100847.73
2019-01-19T14:11:18.061Z,100844.11
2019-01-19T14:13:55.868Z,100849.46
2019-01-19T14:16:30.969Z,100844.92
2019-01-19T14:19:13.956Z,100841.30
2019-01-19T14:22:10.969Z,100839.42
2019-01-19T14:24:56.739Z,100838.84
2019-01-19T14:27:59.708Z,100838.79
2019-01-19T14:30:36.522Z,100834.50
2019-01-19T14:33:25.477Z,100835.52
2019-01-19T14:36:17.453Z,100830.32
2019-01-19T14:39:41.477Z,100830.61
2019-01-19T14:42:27.605Z,100829.87
2019-01-19T14:45:30.412Z,100824.97
2019-01-19T14:48:21.074Z,100822.67
2019-01-19T14:51:23.559Z,100815.59
2019-01-19T14:54:29.436Z,100818.77
2019-01-19T14:57:10.513Z,100812.77
2019-01-19T15:00:16.137Z,100811.13
2019-01-19T15:03:35.179Z,100808.33
2019-01-19T15:06:21.173Z,100807.58
2019-01-19T15:09:15.893Z,100805.73
2019-01-19T15:12:19.682Z,100804.87
2019-01-19T15:15:02.433Z,100800.63
2019-01-19T15:18:04.044Z,100802.78
2019-01-19T15:20:41.013Z,100799.75
2019-01-19T15:23:36.319Z,100803.25
2019-01-19T15:26:18.855Z,100798.73
2019-01-19T15:29:20.279Z,100799.95
2019-01-19T15:32:13.813Z,100795.28
2019-01-19T15:35:18.006Z,100798.93
2019-01-19T15:38:23.351Z,100796.87
2019-01-19T15:41:29.145Z,100792.97
2019-01-19T15:44:39.249Z,100793.54
2019-01-19T15:47:22.291Z,100790.45
2019-01-19T15:50:16.029Z,100793.45
2019-01-19T15:52:50.310Z,100787.20
2019-01-19T15:56:11.734Z,100796.17
2019-01-19T15:58:54.390Z,100802.45
2019-01-19T16:01:40.275Z,100793.73
2019-01-19T16:04:35.407Z,100792.86
2019-01-19T16:07:24.970Z,100792.92
2019-01-19T16:10:24.628Z,100800.13
2019-01-19T16:13:20.805Z,100800.21
2019-01-19T16:16:10.384Z,100804.84
2019-01-19T16:18:53.044Z,100797.88
2019-01-19T16:21:35.949Z,100793.23
2019-01-19T16:24:40.303Z,100788.61
2019-01-19T16:27:29.891Z,100788.44
2019-01-19T16:30:29.469Z,100790.59
2019-01-19T16:33:24.177Z,100788.04
2019-01-19T16:36:25.330Z,100789.89
2019-01-19T16:39:28.946Z,100790.02
2019-01-19T16:42:06.929Z,100785.38
2019-01-19T16:44:41.174Z,100788.91
2019-01-19T16:47:36.811Z,100785.77
2019-01-19T16:50:36.607Z,100778.56
2019-01-19T16:53:11.093Z,100784.72
2019-01-19T16:55:45.254Z,100782.64
2019-01-19T16:58:24.665Z,100782.78
2019-01-19T17:01:33.911Z,100780.05
2019-01-19T17:04:16.970Z,100781.51
2019-01-19T17:06:56.988Z,100785.70
2019-01-19T17:09:52.164Z,100779.47
2019-01-19T17:12:38.240Z,100782.89
2019-01-19T17:15:24.443Z,100780.39
2019-01-19T17:18:07.218Z,100782.95
2019-01-19T17:21:03.259Z,100781.59
2019-01-19T17:23:46.324Z,100779.11
2019-01-19T17:26:29.235Z,100776.19
2019-01-19T17:29:27.388Z,100771.45
2019-01-19T17:32:16.701Z,100765.80
2019-01-19T17:35:20.843Z,100771.53
2019-01-19T17:38:05.055Z,100770.91
2019-01-19T17:40:41.959Z,100776.31
2019-01-19T17:43:26.274Z,100772.59
2019-01-19T17:46:18.342Z,100779.34
2019-01-19T17:49:01.276Z,100767.59
2019-01-19T17:52:10.040Z,100773.04
2019-01-19T17:55:32.433Z,100772.89
2019-01-19T17:58:27.040Z,100772.20
2019-01-19T18:01:26.908Z,100769.79
2019-01-19T18:04:18.956Z,100772.77
2019-01-19T18:07:18.816Z,100776.60
2019-01-19T18:10:07.946Z,100771.31
2019-01-19T18:12:53.921Z,100778.92
2019-01-19T18:15:51.112Z,100778.63
2019-01-19T18:18:40.437Z,100775.63
2019-01-19T18:21:29.096Z,100775.87
2019-01-19T18:24:30.342Z,100777.34
2019-01-19T18:27:25.858Z,100781.45
2019-01-19T18:30:12.011Z,100784.24
2019-01-19T18:33:03.819Z,100787.16
2019-01-19T18:35:52.898Z,100788.70
2019-01-19T18:38:41.588Z,100795.27
2019-01-19T18:41:30.362Z,100801.03
2019-01-19T18:44:37.822Z,100797.75
2019-01-19T18:47:30.115Z,100795.84
2019-01-19T18:50:32.244Z,100792.48
2019-01-19T18:53:35.403Z,100792.17
2019-01-19T18:56:38.745Z,100784.75
2019-01-19T18:59:15.841Z,100784.94
2019-01-19T19:02:35.231Z,100788.64
2019-01-19T19:05:20.505Z,100788.78
2019-01-19T19:08:15.479Z,100788.52
2019-01-19T19:10:55.644Z,100787.38
2019-01-19T19:13:35.866Z,100786.09
2019-01-19T19:16:33.965Z,100778.33
2019-01-19T19:19:42.235Z,100780.24
2019-01-19T19:22:24.968Z,100781.80
2019-01-19T19:25:28.806Z,100782.79
2019-01-19T19:28:45.912Z,100786.81
2019-01-19T19:31:46.654Z,100790.34
2019-01-19T19:34:41.180Z,100791.39
2019-01-19T19:37:34.684Z,100789.52
2019-01-19T19:40:20.876Z,100792.38
2019-01-19T19:42:55.087Z,100791.79
2019-01-19T19:45:47.099Z,100788.17
2019-01-19T19:48:23.946Z,100790.23
2019-01-19T19:51:12.474Z,100792.66
2019-01-19T19:53:42.513Z,100783.75
2019-01-19T19:56:10.458Z,100781.59
2019-01-19T19:58:40.961Z,100780.72
2019-01-19T20:01:10.592Z,100784.94
2019-01-19T20:03:40.211Z,100784.34
2019-01-19T20:06:09.786Z,100788.77
2019-01-19T20:08:39.384Z,100793.74
2019-01-19T20:11:09.041Z,100791.70
2019-01-19T20:13:38.702Z,100789.27
2019-01-19T20:16:08.293Z,100791.31
2019-01-19T20:18:37.979Z,100788.28
2019-01-19T20:21:07.910Z,100791.42
2019-01-19T20:23:37.646Z,100792.29
2019-01-19T20:26:07.380Z,100783.97
2019-01-19T20:28:36.994Z,100782.70
2019-01-19T20:31:06.721Z,100781.52
2019-01-19T20:33:36.321Z,100776.42
2019-01-19T20:36:06.092Z,100776.50
2019-01-19T20:38:35.725Z,100777.66
2019-01-19T20:41:05.540Z,100777.09
2019-01-19T20:43:35.239Z,100774.75
2019-01-19T20:46:04.885Z,100780.13
2019-01-19T20:48:34.669Z,100779.45
2019-01-19T20:51:04.659Z,100782.28
2019-01-19T20:53:34.291Z,100782.16
2019-01-19T20:56:04.084Z,100790.31
2019-01-19T20:58:33.698Z,100790.59
2019-01-19T21:01:03.185Z,100789.36
2019-01-19T21:03:32.786Z,100792.98
2019-01-19T21:06:02.391Z,100789.95
2019-01-19T21:08:31.957Z,100793.68
2019-01-19T21:11:01.551Z,100796.81
2019-01-19T21:13:31.564Z,100790.14
2019-01-19T21:16:02.695Z,100790.02
2019-01-19T21:18:32.282Z,100793.33
2019-01-19T21:21:02.251Z,100794.72
2019-01-19T21:23:31.873Z,100800.60
2019-01-19T21:26:04.202Z,100805.61
2019-01-19T21:28:34.006Z,100804.09
2019-01-19T21:31:03.614Z,100804.03
2019-01-19T21:33:33.203Z,100801.94
2019-01-19T21:36:02.840Z,100801.47
2019-01-19T21:38:34.311Z,100809.39
2019-01-19T21:41:06.180Z,100806.14
2019-01-19T21:43:35.650Z,100807.53
2019-01-19T21:46:05.287Z,100806.21
2019-01-19T21:48:35.039Z,100805.41
2019-01-19T21:51:04.587Z,100807.16
2019-01-19T21:53:34.501Z,100802.31
2019-01-19T21:56:05.623Z,100806.49
2019-01-19T21:58:37.226Z,100811.58
2019-01-19T22:01:06.870Z,100800.28
2019-01-19T22:03:39.347Z,100798.63
2019-01-19T22:06:09.539Z,100806.31
2019-01-19T22:08:39.096Z,100814.67
2019-01-19T22:11:08.658Z,100812.67
2019-01-19T22:13:38.166Z,100815.18
2019-01-19T22:16:07.756Z,100815.93
2019-01-19T22:18:37.350Z,100813.30
2019-01-19T22:21:06.992Z,100808.78
2019-01-19T22:23:36.541Z,100811.91
2019-01-19T22:26:08.038Z,100815.09
2019-01-19T22:28:37.733Z,100817.94
2019-01-19T22:31:07.244Z,100815.82
2019-01-19T22:33:36.860Z,100817.42
2019-01-19T22:36:07.466Z,100822.36
2019-01-19T22:38:37.920Z,100810.67
2019-01-19T22:41:09.075Z,100813.19
2019-01-19T22:43:38.644Z,100813.28
2019-01-19T22:46:08.311Z,100818.78
2019-01-19T22:48:37.899Z,100815.00
2019-01-19T22:51:11.427Z,100814.00
2019-01-19T22:53:38.689Z,100809.09
2019-01-19T22:56:08.229Z,100809.18
2019-01-19T22:58:37.822Z,100803.66
2019-01-19T23:01:21.199Z,100807.52
2019-01-19T23:03:50.785Z,100808.26
2019-01-19T23:06:20.356Z,100804.56
2019-01-19T23:08:49.962Z,100810.90
2019-01-19T23:11:19.540Z,100816.20
2019-01-19T23:13:49.098Z,100819.69
2019-01-19T23:16:18.769Z,100817.70
2019-01-19T23:18:48.340Z,100820.90
2019-01-19T23:21:17.873Z,100818.20
2019-01-19T23:23:47.368Z,100818.72
2019-01-19T23:26:17.525Z,100811.88
2019-01-19T23:28:47.017Z,100812.59
2019-01-19T23:31:16.511Z,100810.99
2019-01-19T23:33:46.111Z,100806.22
2019-01-19T23:36:15.596Z,100809.03
2019-01-19T23:38:45.253Z,100803.55
2019-01-19T23:41:16.893Z,100812.95
2019-01-19T23:43:46.492Z,100811.32
2019-01-19T23:46:16.067Z,100814.53
2019-01-19T23:48:45.723Z,100807.12
2019-01-19T23:51:15.251Z,100807.90
2019-01-19T23:53:44.831Z,100811.79
2019-01-19T23:56:14.476Z,100807.02
2019-01-19T23:58:44.059Z,100808.86
